Time;durP1;ratioP1;P1;durP2;ratioP2;P2;SDS_P1;SDS_P2;PMS_P1;PMS_P2;Temp;Humidity;BMP_temperature;BMP_pressure;BME280_temperature;BME280_humidity;BME280_pressure;Samples;Min_cycle;Max_cycle;Signal;HPM_P1;HPM_P2
2024/04/20 00:00:52;;;;;;;0.90;0.90;;;;;;;6.55;100.00;100232.66;5185448;27;20338;-85
2024/04/20 00:03:21;;;;;;;1.33;0.82;;;;;;;6.50;100.00;100248.22;5179766;27;20023;-86
2024/04/20 00:05:49;;;;;;;0.80;0.80;;;;;;;6.57;100.00;100249.09;5172428;27;20499;-84
2024/04/20 00:08:19;;;;;;;1.05;1.00;;;;;;;6.52;100.00;100259.53;5155418;27;20022;-84
2024/04/20 00:10:48;;;;;;;0.98;0.98;;;;;;;6.57;100.00;100265.59;5179454;27;20012;-84
2024/04/20 00:13:16;;;;;;;0.90;0.90;;;;;;;6.42;100.00;100269.03;5178041;27;20009;-87
2024/04/20 00:15:44;;;;;;;1.63;0.75;;;;;;;6.41;100.00;100269.03;5153407;27;20482;-84
2024/04/20 00:18:12;;;;;;;1.52;1.20;;;;;;;6.50;100.00;100273.38;5175062;27;20024;-85
2024/04/20 00:20:43;;;;;;;1.30;1.13;;;;;;;6.54;100.00;100285.53;5151563;27;20009;-88
2024/04/20 00:23:12;;;;;;;0.85;0.85;;;;;;;6.54;100.00;100280.31;5173185;27;20012;-86
2024/04/20 00:25:40;;;;;;;0.68;0.68;;;;;;;6.55;100.00;100284.66;5172656;27;20461;-86
2024/04/20 00:28:09;;;;;;;1.23;1.13;;;;;;;6.55;100.00;100285.50;5170339;27;20012;-86
2024/04/20 00:30:37;;;;;;;1.40;1.30;;;;;;;6.55;100.00;100292.47;5173875;27;20016;-87
2024/04/20 00:33:08;;;;;;;1.27;1.10;;;;;;;6.53;100.00;100295.06;5176801;27;20016;-85
2024/04/20 00:35:43;;;;;;;1.23;1.13;;;;;;;6.44;100.00;100306.31;5174870;27;20492;-85
2024/04/20 00:38:11;;;;;;;1.52;1.00;;;;;;;6.53;100.00;100300.28;5200561;27;20777;-84
2024/04/20 00:40:40;;;;;;;1.30;1.20;;;;;;;6.39;100.00;100296.78;5202953;27;20008;-84
2024/04/20 00:43:08;;;;;;;2.50;1.67;;;;;;;6.40;100.00;100312.38;5208002;27;20465;-85
2024/04/20 00:45:36;;;;;;;2.95;1.58;;;;;;;6.52;100.00;100315.84;5172676;27;20020;-86
2024/04/20 00:48:05;;;;;;;1.55;1.45;;;;;;;6.52;100.00;100319.34;5182544;27;20016;-84
2024/04/20 00:50:36;;;;;;;2.60;1.70;;;;;;;6.56;100.00;100318.47;5174385;27;20012;-88
2024/04/20 00:53:05;;;;;;;1.63;1.52;;;;;;;6.57;100.00;100322.81;5151439;27;20044;-84
2024/04/20 00:55:34;;;;;;;1.52;1.42;;;;;;;6.43;100.00;100329.72;5181193;27;20524;-85
2024/04/20 00:58:07;;;;;;;1.98;1.88;;;;;;;6.50;100.00;100335.78;5206020;27;21509;-86
2024/04/20 01:00:40;;;;;;;1.93;1.33;;;;;;;6.52;100.00;100336.66;5167143;27;20016;-85
2024/04/20 01:03:09;;;;;;;2.47;1.50;;;;;;;6.49;100.00;100334.91;5168921;27;20715;-85
2024/04/20 01:05:37;;;;;;;1.80;1.65;;;;;;;6.42;100.00;100344.41;5143969;27;20032;-87
2024/04/20 01:08:07;;;;;;;1.50;1.40;;;;;;;6.27;100.00;100342.66;5150425;27;20286;-84
2024/04/20 01:10:35;;;;;;;3.47;2.25;;;;;;;6.23;100.00;100348.72;5179224;27;20020;-84
2024/04/20 01:13:06;;;;;;;1.77;1.40;;;;;;;6.26;100.00;100359.09;5149393;27;20024;-85
2024/04/20 01:15:36;;;;;;;2.55;1.60;;;;;;;6.25;100.00;100361.72;5142380;27;20008;-85
2024/04/20 01:18:05;;;;;;;2.22;1.60;;;;;;;6.36;100.00;100375.63;5145488;27;20059;-84
2024/04/20 01:20:35;;;;;;;3.88;1.83;;;;;;;6.38;100.00;100373.03;5120599;27;20030;-86
2024/04/20 01:23:05;;;;;;;2.38;2.20;;;;;;;6.32;100.00;100368.66;5145432;27;20020;-84
2024/04/20 01:25:34;;;;;;;2.53;1.35;;;;;;;6.37;100.00;100384.28;5148037;27;20008;-86
2024/04/20 01:28:02;;;;;;;4.72;1.95;;;;;;;6.35;100.00;100381.69;5147593;27;20012;-84
2024/04/20 01:30:33;;;;;;;2.40;1.52;;;;;;;6.33;100.00;100390.34;5119813;27;20021;-83
2024/04/20 01:33:01;;;;;;;1.73;1.60;;;;;;;6.38;100.00;100397.28;5145291;27;20040;-85
2024/04/20 01:35:30;;;;;;;2.30;1.73;;;;;;;6.37;100.00;100399.88;5151577;27;20738;-86
2024/04/20 01:37:58;;;;;;;2.05;1.38;;;;;;;6.28;100.00;100398.09;5146200;27;20020;-84
2024/04/20 01:40:27;;;;;;;1.58;1.40;;;;;;;6.22;100.00;100413.66;5146295;27;20031;-84
2024/04/20 01:42:55;;;;;;;4.30;1.40;;;;;;;6.27;100.00;100415.44;5147960;27;20024;-84
2024/04/20 01:45:23;;;;;;;3.33;1.40;;;;;;;6.26;100.00;100415.44;5165232;27;20088;-85
2024/04/20 01:47:51;;;;;;;4.63;1.40;;;;;;;6.11;100.00;100422.31;5122115;27;20009;-85
2024/04/20 01:50:20;;;;;;;2.25;1.73;;;;;;;6.07;100.00;100424.84;5148922;27;20027;-85
2024/04/20 01:52:48;;;;;;;2.75;2.17;;;;;;;6.08;100.00;100427.47;5153255;27;20012;-86
2024/04/20 01:55:16;;;;;;;2.35;1.65;;;;;;;6.13;100.00;100433.56;5132792;27;20453;-85
2024/04/20 01:57:45;;;;;;;3.90;1.85;;;;;;;6.10;100.00;100443.94;5151588;27;20079;-85
2024/04/20 02:00:14;;;;;;;2.25;1.48;;;;;;;6.05;100.00;100445.63;5123365;27;20465;-84
2024/04/20 02:02:44;;;;;;;1.48;1.30;;;;;;;6.05;100.00;100448.25;5176058;27;20040;-85
2024/04/20 02:05:16;;;;;;;3.30;1.27;;;;;;;6.07;100.00;100450.84;5186746;27;20007;-85
2024/04/20 02:07:44;;;;;;;2.13;0.98;;;;;;;6.13;100.00;100459.53;5179733;27;20019;-87
2024/04/20 02:10:12;;;;;;;1.38;1.15;;;;;;;6.05;100.00;100466.44;5181992;27;20019;-85
2024/04/20 02:12:41;;;;;;;1.58;1.08;;;;;;;6.05;100.00;100463.84;5182911;27;20020;-84
2024/04/20 02:15:09;;;;;;;2.30;1.63;;;;;;;6.07;100.00;100467.28;5180354;27;20009;-84
2024/04/20 02:17:38;;;;;;;1.98;1.13;;;;;;;6.10;100.00;100469.94;5181813;27;20677;-85
2024/04/20 02:20:08;;;;;;;3.15;1.02;;;;;;;6.13;100.00;100471.69;5186193;27;20015;-83
2024/04/20 02:22:36;;;;;;;2.33;1.10;;;;;;;6.12;100.00;100477.72;5176889;27;20008;-86
2024/04/20 02:25:04;;;;;;;1.83;1.35;;;;;;;6.13;100.00;100482.06;5179504;27;20487;-84
2024/04/20 02:27:33;;;;;;;1.33;1.23;;;;;;;6.16;100.00;100484.69;5175376;27;20456;-86
2024/04/20 02:30:01;;;;;;;3.25;1.38;;;;;;;6.17;100.00;100488.16;5180375;27;20023;-84
2024/04/20 02:32:29;;;;;;;1.23;1.08;;;;;;;6.05;100.00;100497.63;5183430;27;20082;-85
2024/04/20 02:34:57;;;;;;;1.10;1.00;;;;;;;6.06;100.00;100499.38;5156032;27;20007;-85
2024/04/20 02:37:26;;;;;;;1.70;1.20;;;;;;;6.07;100.00;100497.63;5183376;27;20012;-85
2024/04/20 02:39:56;;;;;;;2.67;1.50;;;;;;;6.09;100.00;100496.78;5177930;27;20012;-85
2024/04/20 02:42:24;;;;;;;2.28;1.25;;;;;;;6.07;100.00;100503.69;5177600;27;20016;-84
2024/04/20 02:44:54;;;;;;;3.83;1.45;;;;;;;5.96;100.00;100511.38;5172762;27;20747;-85
2024/04/20 02:47:22;;;;;;;1.00;1.00;;;;;;;5.95;100.00;100513.97;5181014;27;20011;-84
2024/04/20 02:49:52;;;;;;;1.42;1.33;;;;;;;5.90;100.00;100518.25;5199520;27;20014;-83
2024/04/20 02:52:20;;;;;;;1.65;1.55;;;;;;;5.97;100.00;100522.63;5154804;27;20051;-87
2024/04/20 02:54:48;;;;;;;1.30;1.08;;;;;;;6.02;100.00;100522.69;5184072;27;20012;-86
2024/04/20 02:57:17;;;;;;;1.10;1.10;;;;;;;6.10;100.00;100534.00;5174024;27;20016;-86
2024/04/20 02:59:45;;;;;;;2.60;1.50;;;;;;;6.05;100.00;100530.50;5183337;27;20007;-83
2024/04/20 03:02:13;;;;;;;2.20;1.45;;;;;;;6.00;100.00;100534.81;5205633;27;20023;-84
2024/04/20 03:04:41;;;;;;;1.60;1.42;;;;;;;5.83;100.00;100532.91;5183836;27;20008;-85
2024/04/20 03:07:10;;;;;;;1.38;1.27;;;;;;;5.94;100.00;100541.69;5205630;27;20008;-84
2024/04/20 03:09:38;;;;;;;1.27;1.17;;;;;;;5.86;100.00;100539.88;5154512;27;20472;-84
2024/04/20 03:12:07;;;;;;;3.53;1.55;;;;;;;5.92;100.00;100551.19;5155342;27;20072;-84
2024/04/20 03:14:35;;;;;;;1.85;1.17;;;;;;;5.82;100.00;100538.09;5183136;27;20320;-85
2024/04/20 03:17:03;;;;;;;6.15;1.48;;;;;;;5.91;100.00;100545.97;5184905;27;20007;-84
2024/04/20 03:19:32;;;;;;;1.13;1.13;;;;;;;5.91;100.00;100546.84;5186601;27;20008;-85
2024/04/20 03:22:00;;;;;;;1.63;1.20;;;;;;;5.90;100.00;100555.47;5206411;27;20065;-85
2024/04/20 03:24:28;;;;;;;2.78;1.65;;;;;;;5.92;100.00;100555.53;5179896;27;20012;-85
2024/04/20 03:26:56;;;;;;;1.40;1.13;;;;;;;5.94;100.00;100559.88;5180636;27;20031;-86
2024/04/20 03:29:24;;;;;;;1.38;1.00;;;;;;;5.91;100.00;100562.44;5185614;27;20011;-84
2024/04/20 03:31:52;;;;;;;1.38;1.27;;;;;;;5.86;100.00;100565.84;5175792;27;20016;-86
2024/04/20 03:34:20;;;;;;;2.42;1.10;;;;;;;5.84;100.00;100573.63;5178262;27;20047;-85
2024/04/20 03:36:49;;;;;;;2.25;1.08;;;;;;;5.79;100.00;100572.72;5183173;27;20026;-85
2024/04/20 03:39:17;;;;;;;1.45;0.88;;;;;;;5.75;100.00;100583.91;5175622;27;20027;-84
2024/04/20 03:41:46;;;;;;;1.90;1.30;;;;;;;5.75;100.00;100586.50;5206986;27;20348;-86
2024/04/20 03:44:16;;;;;;;4.38;1.13;;;;;;;5.69;100.00;100589.94;5185925;27;20015;-85
2024/04/20 03:46:45;;;;;;;1.02;0.80;;;;;;;5.63;100.00;100601.13;5176863;27;20015;-85
2024/04/20 03:49:13;;;;;;;2.15;1.00;;;;;;;5.54;100.00;100597.56;5206075;27;20030;-84
2024/04/20 03:51:41;;;;;;;1.38;1.38;;;;;;;5.51;100.00;100613.97;5204129;27;20020;-88
2024/04/20 03:54:12;;;;;;;0.95;0.95;;;;;;;5.54;100.00;100605.34;5181805;27;20049;-85
2024/04/20 03:56:40;;;;;;;2.55;1.00;;;;;;;5.53;100.00;100624.38;5179521;27;20116;-84
2024/04/20 03:59:08;;;;;;;1.33;0.65;;;;;;;5.50;100.00;100620.03;5208474;27;20011;-83
2024/04/20 04:01:36;;;;;;;1.10;1.00;;;;;;;5.46;100.00;100623.44;5179017;27;20007;-87
2024/04/20 04:04:05;;;;;;;0.95;0.82;;;;;;;5.41;100.00;100626.00;5182085;27;20019;-83
2024/04/20 04:06:33;;;;;;;1.65;1.02;;;;;;;5.37;100.00;100633.72;5180483;27;20007;-85
2024/04/20 04:09:01;;;;;;;3.35;0.90;;;;;;;5.33;100.00;100637.13;5208192;27;20008;-86
2024/04/20 04:11:29;;;;;;;1.65;0.90;;;;;;;5.29;100.00;100637.09;5188484;27;20023;-85
2024/04/20 04:13:58;;;;;;;1.02;0.80;;;;;;;5.32;100.00;100653.53;5184199;27;20011;-84
2024/04/20 04:16:26;;;;;;;1.63;1.38;;;;;;;5.33;100.00;100648.38;5184487;27;20012;-86
2024/04/20 04:18:54;;;;;;;1.60;1.33;;;;;;;5.32;100.00;100654.44;5208235;27;20423;-85
2024/04/20 04:21:23;;;;;;;2.58;1.00;;;;;;;5.46;100.00;100657.19;5215368;27;20031;-84
2024/04/20 04:23:51;;;;;;;1.58;1.02;;;;;;;5.46;100.00;100664.97;5181949;27;20453;-85
2024/04/20 04:26:20;;;;;;;1.25;0.63;;;;;;;5.46;100.00;100670.16;5213115;27;20036;-86
2024/04/20 04:28:48;;;;;;;1.08;1.00;;;;;;;5.48;100.00;100673.66;5206298;27;20097;-84
2024/04/20 04:31:16;;;;;;;0.85;0.80;;;;;;;5.53;100.00;100681.50;5178847;27;20158;-85
2024/04/20 04:33:44;;;;;;;1.00;0.63;;;;;;;5.55;100.00;100680.66;5179813;27;20016;-86
2024/04/20 04:36:13;;;;;;;3.38;1.55;;;;;;;5.52;100.00;100687.56;5209959;27;20014;-84
2024/04/20 04:38:41;;;;;;;0.68;0.65;;;;;;;5.59;100.00;100690.25;5191005;27;20012;-85
2024/04/20 04:41:09;;;;;;;0.85;0.85;;;;;;;5.63;100.00;100688.53;5203488;27;20028;-85
2024/04/20 04:43:39;;;;;;;0.88;0.60;;;;;;;5.62;100.00;100687.69;5181359;27;20022;-84
2024/04/20 04:46:07;;;;;;;3.22;0.55;;;;;;;5.66;100.00;100698.09;5201765;27;20019;-85
2024/04/20 04:48:36;;;;;;;2.17;0.93;;;;;;;5.63;100.00;100698.94;5181876;27;20008;-84
2024/04/20 04:51:05;;;;;;;2.28;1.10;;;;;;;5.63;100.00;100704.13;5181255;27;20020;-87
2024/04/20 04:53:33;;;;;;;0.90;0.90;;;;;;;5.59;100.00;100708.44;5176806;27;20008;-86
2024/04/20 04:56:03;;;;;;;0.80;0.80;;;;;;;5.60;100.00;100720.53;5178261;27;20008;-85
2024/04/20 04:58:32;;;;;;;1.00;0.50;;;;;;;5.57;100.00;100722.25;5182393;27;20026;-84
2024/04/20 05:01:00;;;;;;;1.08;0.90;;;;;;;5.56;100.00;100730.88;5179979;27;20007;-86
2024/04/20 05:03:28;;;;;;;1.15;1.00;;;;;;;5.51;100.00;100730.81;5182086;27;20468;-84
2024/04/20 05:05:59;;;;;;;1.50;0.80;;;;;;;5.47;100.00;100739.41;5180826;27;20018;-87
2024/04/20 05:08:28;;;;;;;0.68;0.57;;;;;;;5.47;100.00;100744.63;5178850;27;20063;-85
2024/04/20 05:10:56;;;;;;;1.20;0.73;;;;;;;5.47;100.00;100747.22;5185715;27;20022;-85
2024/04/20 05:13:24;;;;;;;2.83;0.80;;;;;;;5.28;100.00;100741.78;5186075;27;21081;-85
2024/04/20 05:15:56;;;;;;;2.60;1.38;;;;;;;5.35;100.00;100750.50;5182507;27;20027;-87
2024/04/20 05:18:25;;;;;;;1.13;0.70;;;;;;;5.30;100.00;100750.44;5181643;27;20827;-84
2024/04/20 05:20:53;;;;;;;1.25;0.43;;;;;;;5.21;100.00;100752.91;5181087;27;20012;-86
2024/04/20 05:23:23;;;;;;;0.95;0.60;;;;;;;5.17;100.00;100753.72;5207049;27;20011;-84
2024/04/20 05:25:51;;;;;;;2.75;0.68;;;;;;;5.22;100.00;100756.38;5156377;27;20467;-85
2024/04/20 05:28:22;;;;;;;1.13;0.70;;;;;;;5.24;100.00;100757.25;5184832;27;20016;-84
2024/04/20 05:30:52;;;;;;;1.85;0.82;;;;;;;5.18;100.00;100760.66;5159383;27;20008;-85
2024/04/20 05:33:20;;;;;;;1.15;0.80;;;;;;;5.16;100.00;100772.72;5181475;27;20026;-84
2024/04/20 05:35:49;;;;;;;0.70;0.70;;;;;;;5.23;100.00;100769.38;5181323;27;20026;-83
2024/04/20 05:38:18;;;;;;;1.40;0.65;;;;;;;5.19;100.00;100775.38;5179925;27;20012;-85
2024/04/20 05:40:46;;;;;;;3.67;0.85;;;;;;;5.17;100.00;100786.59;5182460;27;20011;-85
2024/04/20 05:43:14;;;;;;;0.70;0.70;;;;;;;5.30;100.00;100788.50;5180574;27;20082;-84
2024/04/20 05:45:45;;;;;;;1.15;1.05;;;;;;;5.28;100.00;100782.44;5186980;27;20031;-84
2024/04/20 05:48:14;;;;;;;0.88;0.65;;;;;;;5.36;100.00;100790.31;5153542;27;20016;-86
2024/04/20 05:50:44;;;;;;;1.95;1.40;;;;;;;5.40;100.00;100798.19;5186019;27;20008;-84
2024/04/20 05:53:12;;;;;;;2.50;0.68;;;;;;;5.46;100.00;100798.28;5185568;27;20019;-84
2024/04/20 05:55:40;;;;;;;2.58;0.50;;;;;;;5.49;99.75;100810.44;5205963;27;20027;-84
2024/04/20 05:58:08;;;;;;;2.97;1.08;;;;;;;5.56;99.74;100811.38;5180152;27;20018;-84
2024/04/20 06:00:36;;;;;;;2.35;1.25;;;;;;;5.60;98.61;100813.16;5197727;27;20017;-84
2024/04/20 06:03:05;;;;;;;1.15;0.93;;;;;;;5.64;98.58;100812.34;5180252;27;20598;-85
2024/04/20 06:05:33;;;;;;;1.92;0.70;;;;;;;5.68;98.25;100815.88;5153851;27;20024;-83
2024/04/20 06:08:02;;;;;;;3.30;1.08;;;;;;;5.73;97.81;100822.88;5182748;27;20355;-84
2024/04/20 06:10:31;;;;;;;1.25;0.65;;;;;;;5.77;96.25;100822.06;5183984;27;20027;-84
2024/04/20 06:12:59;;;;;;;6.97;1.02;;;;;;;5.86;95.60;100830.84;5203200;27;20473;-85
2024/04/20 06:15:27;;;;;;;2.45;1.20;;;;;;;5.85;94.67;100826.50;5210418;27;20092;-87
2024/04/20 06:17:55;;;;;;;0.77;0.77;;;;;;;5.89;93.07;100842.16;5206876;27;20008;-85
2024/04/20 06:20:23;;;;;;;3.13;1.00;;;;;;;5.95;93.41;100842.22;5176595;27;20047;-84
2024/04/20 06:22:56;;;;;;;1.25;1.05;;;;;;;5.95;93.32;100850.00;5177404;27;20024;-85
2024/04/20 06:25:26;;;;;;;0.50;0.50;;;;;;;6.05;92.35;100851.06;5189098;27;20008;-84
2024/04/20 06:27:54;;;;;;;1.35;0.50;;;;;;;6.14;91.62;100852.91;5183366;27;20599;-86
2024/04/20 06:30:22;;;;;;;1.02;0.93;;;;;;;6.27;91.07;100859.97;5204567;27;20026;-83
2024/04/20 06:32:51;;;;;;;1.17;0.90;;;;;;;6.28;89.32;100855.66;5204326;27;20028;-84
2024/04/20 06:35:20;;;;;;;3.63;1.25;;;;;;;6.28;88.47;100859.13;5189558;27;20016;-84
2024/04/20 06:37:48;;;;;;;1.30;0.90;;;;;;;6.42;87.31;100864.47;5181458;27;20011;-88
2024/04/20 06:40:17;;;;;;;1.25;0.70;;;;;;;6.53;86.04;100862.03;5187259;27;20027;-86
2024/04/20 06:42:49;;;;;;;0.75;0.50;;;;;;;6.49;84.89;100865.41;5185047;27;20008;-85
2024/04/20 06:45:20;;;;;;;1.15;1.00;;;;;;;6.78;83.66;100875.28;5184330;27;20007;-84
2024/04/20 06:47:48;;;;;;;0.80;0.70;;;;;;;7.06;84.39;100868.59;5182190;27;20027;-84
2024/04/20 06:50:18;;;;;;;0.75;0.57;;;;;;;7.65;80.54;100878.59;5182050;27;24314;-83
2024/04/20 06:52:47;;;;;;;1.63;0.70;;;;;;;9.25;74.97;100871.31;5206540;27;20008;-85
2024/04/20 06:55:16;;;;;;;0.82;0.82;;;;;;;11.40;64.22;100872.19;5183076;27;20011;-85
2024/04/20 06:57:44;;;;;;;4.53;1.00;;;;;;;12.61;55.62;100866.47;5176191;27;20501;-86
2024/04/20 07:00:13;;;;;;;2.20;0.80;;;;;;;11.82;57.43;100875.25;5184257;27;20091;-85
2024/04/20 07:02:41;;;;;;;0.85;0.30;;;;;;;12.35;55.80;100882.56;5205770;27;20012;-85
2024/04/20 07:05:09;;;;;;;4.50;0.60;;;;;;;12.45;53.70;100878.94;5176523;27;20008;-86
2024/04/20 07:07:37;;;;;;;3.40;0.75;;;;;;;12.14;53.21;100876.69;5167561;27;20012;-85
2024/04/20 07:10:06;;;;;;;1.42;0.65;;;;;;;11.87;53.54;100881.31;5173594;27;20017;-85
2024/04/20 07:12:34;;;;;;;1.23;0.47;;;;;;;11.63;53.24;100881.56;5174442;27;20092;-85
2024/04/20 07:15:02;;;;;;;0.77;0.77;;;;;;;11.80;54.78;100892.78;5177145;27;20020;-85
2024/04/20 07:17:30;;;;;;;1.10;0.70;;;;;;;12.68;53.21;100898.75;5173418;27;20079;-85
2024/04/20 07:19:59;;;;;;;2.08;0.63;;;;;;;12.80;52.46;100901.25;5150206;27;20040;-84
2024/04/20 07:22:27;;;;;;;1.98;0.73;;;;;;;12.39;52.57;100907.91;5180459;27;20023;-86
2024/04/20 07:24:55;;;;;;;0.98;0.82;;;;;;;14.19;49.06;100908.56;5178980;27;20131;-86
2024/04/20 07:27:24;;;;;;;3.45;0.50;;;;;;;14.37;47.71;100905.53;5164245;27;20436;-85
2024/04/20 07:29:52;;;;;;;0.95;0.73;;;;;;;14.97;47.06;100906.03;5176110;27;20060;-85
2024/04/20 07:32:20;;;;;;;1.45;0.50;;;;;;;14.12;46.18;100902.56;5169230;27;20186;-83
2024/04/20 07:34:48;;;;;;;1.02;0.43;;;;;;;14.78;45.79;100905.56;5178199;27;20103;-89
2024/04/20 07:37:16;;;;;;;0.60;0.60;;;;;;;14.37;46.17;100912.59;5188670;27;20738;-87
2024/04/20 07:39:48;;;;;;;2.03;0.80;;;;;;;13.10;48.20;100919.19;5187842;27;21513;-89
2024/04/20 07:42:16;;;;;;;1.15;0.82;;;;;;;14.26;46.63;100914.56;5181589;27;20314;-90
2024/04/20 07:44:45;;;;;;;2.55;0.93;;;;;;;15.40;45.05;100912.06;5181850;27;20056;-88
2024/04/20 07:47:13;;;;;;;0.68;0.47;;;;;;;16.31;42.65;100920.22;5155340;27;20013;-89
2024/04/20 07:49:42;;;;;;;0.80;0.40;;;;;;;17.28;41.41;100927.00;5191359;27;20020;-89
2024/04/20 07:52:14;;;;;;;7.15;0.82;;;;;;;17.93;40.17;100914.25;5191286;27;20027;-89
2024/04/20 07:54:45;;;;;;;0.43;0.43;;;;;;;18.13;38.54;100917.97;5167449;27;20042;-89
2024/04/20 07:57:14;;;;;;;0.75;0.47;;;;;;;18.30;38.12;100926.19;5209310;27;20032;-89
2024/04/20 07:59:45;;;;;;;0.77;0.50;;;;;;;18.62;37.94;100939.16;5158112;27;20023;-85
2024/04/20 08:02:13;;;;;;;2.75;0.52;;;;;;;18.69;37.56;100937.97;5177296;27;20144;-84
2024/04/20 08:04:44;;;;;;;1.98;0.47;;;;;;;18.37;37.47;100939.19;5201111;27;20031;-85
2024/04/20 08:07:13;;;;;;;0.90;0.30;;;;;;;19.12;36.88;100941.63;5198134;27;20019;-86
2024/04/20 08:09:41;;;;;;;1.08;0.50;;;;;;;19.14;36.70;100944.25;5200565;27;20429;-84
2024/04/20 08:12:11;;;;;;;0.30;0.30;;;;;;;18.19;37.24;100952.22;5171559;27;20000;-85
2024/04/20 08:14:39;;;;;;;1.02;0.50;;;;;;;18.41;37.79;100948.75;5173223;27;20009;-85
2024/04/20 08:17:07;;;;;;;0.65;0.57;;;;;;;18.81;35.86;100953.44;5172509;27;20151;-84
2024/04/20 08:19:36;;;;;;;1.23;0.60;;;;;;;18.44;36.41;100951.31;5192746;27;20013;-84
2024/04/20 08:22:04;;;;;;;2.05;0.50;;;;;;;18.42;36.63;100956.69;5147880;27;20013;-85
2024/04/20 08:24:32;;;;;;;1.17;0.57;;;;;;;19.59;35.59;100953.03;5171255;27;20012;-85
2024/04/20 08:27:01;;;;;;;0.85;0.40;;;;;;;18.43;36.47;100958.38;5144013;27;20027;-86
2024/04/20 08:29:29;;;;;;;0.93;0.30;;;;;;;15.43;40.15;100972.66;5170886;27;20008;-86
2024/04/20 08:32:00;;;;;;;1.25;0.47;;;;;;;15.38;40.89;100977.16;5151635;27;20047;-84
2024/04/20 08:34:29;;;;;;;1.08;0.35;;;;;;;17.09;38.15;100979.66;5168274;27;20019;-84
2024/04/20 08:36:58;;;;;;;0.95;0.40;;;;;;;17.41;37.08;100992.78;5174093;27;20568;-84
2024/04/20 08:39:27;;;;;;;0.57;0.35;;;;;;;16.70;37.14;100978.13;5170147;27;20004;-85
2024/04/20 08:42:25;;;;;;;1.00;0.25;;;;;;;16.17;37.69;101001.63;5172816;27;20012;-84
2024/04/20 08:44:56;;;;;;;1.33;0.65;;;;;;;18.10;36.23;100997.56;5173623;27;20773;-84
2024/04/20 08:47:25;;;;;;;0.73;0.40;;;;;;;19.28;35.09;100991.44;5146128;27;20019;-83
2024/04/20 08:49:53;;;;;;;0.40;0.40;;;;;;;19.96;33.03;100986.03;5174554;27;20008;-87
2024/04/20 08:52:22;;;;;;;0.38;0.38;;;;;;;19.82;33.36;100989.28;5175883;27;20468;-85
2024/04/20 08:54:53;;;;;;;0.75;0.60;;;;;;;18.26;34.26;100992.59;5175119;27;20004;-87
2024/04/20 08:57:26;;;;;;;0.20;0.20;;;;;;;16.18;37.29;101008.66;5147783;27;20023;-84
2024/04/20 08:59:54;;;;;;;1.42;0.32;;;;;;;16.43;37.91;101008.00;5172409;27;20041;-85
2024/04/20 09:02:30;;;;;;;0.47;0.30;;;;;;;16.94;36.93;101001.28;5144066;27;20023;-83
2024/04/20 09:05:03;;;;;;;0.20;0.20;;;;;;;16.92;35.61;101000.44;5168999;27;20013;-81
2024/04/20 09:07:31;;;;;;;0.22;0.20;;;;;;;17.86;33.87;101016.00;5173547;27;20012;-84
2024/04/20 09:10:05;;;;;;;1.15;0.20;;;;;;;17.90;32.70;101019.41;5180653;27;20031;-83
2024/04/20 09:12:33;;;;;;;0.88;0.55;;;;;;;18.28;33.15;101012.81;5148228;27;20018;-85
2024/04/20 09:15:02;;;;;;;1.13;0.20;;;;;;;19.74;31.77;101015.28;5144226;27;20016;-85
2024/04/20 09:17:30;;;;;;;1.85;0.50;;;;;;;20.67;30.56;101005.00;5148680;27;20052;-84
2024/04/20 09:19:59;;;;;;;0.80;0.60;;;;;;;19.50;31.08;101002.06;5148495;27;20026;-84
2024/04/20 09:22:27;;;;;;;0.40;0.40;;;;;;;18.84;31.73;101013.47;5119176;27;20005;-84
2024/04/20 09:25:08;;;;;;;1.13;0.77;;;;;;;18.93;30.94;101020.22;5174023;27;20035;-85
2024/04/20 09:27:36;;;;;;;0.50;0.40;;;;;;;17.20;33.02;101019.84;5176303;27;20040;-85
2024/04/20 09:30:06;;;;;;;0.95;0.40;;;;;;;15.70;34.19;101026.53;5149823;27;20350;-87
2024/04/20 09:32:38;;;;;;;2.00;0.20;;;;;;;15.36;35.43;101031.75;5141919;27;20024;-83
2024/04/20 09:35:13;;;;;;;2.70;0.60;;;;;;;15.59;35.71;101030.31;5151383;27;20041;-85
2024/04/20 09:37:43;;;;;;;0.25;0.25;;;;;;;15.14;35.74;101036.63;5142026;27;20016;-87
2024/04/20 09:40:12;;;;;;;0.63;0.50;;;;;;;14.85;34.61;101035.47;5143713;27;20473;-85
2024/04/20 09:42:46;;;;;;;0.43;0.20;;;;;;;15.12;35.03;101036.66;5178541;27;20787;-85
2024/04/20 09:45:14;;;;;;;0.40;0.40;;;;;;;15.04;33.77;101047.38;5173419;27;20056;-86
2024/04/20 09:47:43;;;;;;;0.75;0.60;;;;;;;14.86;34.11;101045.09;5144751;27;20008;-87
2024/04/20 09:50:12;;;;;;;0.60;0.40;;;;;;;14.96;34.25;101049.28;5173008;27;20568;-86
2024/04/20 09:53:08;;;;;;;0.30;0.30;;;;;;;15.81;32.85;101043.91;5151738;27;20032;-84
2024/04/20 09:55:46;;;;;;;1.60;0.57;;;;;;;15.67;32.24;101031.88;5150319;27;20009;-86
2024/04/20 09:58:18;;;;;;;0.77;0.15;;;;;;;15.98;31.74;101043.47;5140361;27;20436;-85
2024/04/20 10:00:47;;;;;;;1.45;0.57;;;;;;;16.67;29.91;101041.66;5168573;27;20024;-86
2024/04/20 10:03:16;;;;;;;0.20;0.20;;;;;;;16.45;29.97;101040.50;5151396;27;20019;-85
2024/04/20 10:05:44;;;;;;;1.10;0.50;;;;;;;16.84;29.92;101035.88;5165642;27;20040;-86
2024/04/20 10:08:16;;;;;;;0.32;0.32;;;;;;;16.84;29.92;101027.97;5186408;27;20036;-84
2024/04/20 10:10:46;;;;;;;1.20;0.70;;;;;;;16.48;29.75;101036.00;5181119;27;20007;-85
2024/04/20 10:13:17;;;;;;;0.43;0.20;;;;;;;15.78;30.10;101047.44;5187684;27;20018;-84
2024/04/20 10:15:53;;;;;;;0.60;0.40;;;;;;;15.85;29.35;101049.09;5164999;27;20527;-86
2024/04/20 10:18:21;;;;;;;1.08;0.43;;;;;;;16.15;29.85;101043.06;5185221;27;20094;-85
2024/04/20 10:20:50;;;;;;;1.92;0.68;;;;;;;16.13;30.20;101047.53;5188359;27;20011;-84
2024/04/20 10:23:22;;;;;;;0.40;0.35;;;;;;;15.65;31.07;101051.31;5210108;27;20071;-84
2024/04/20 10:25:53;;;;;;;0.65;0.30;;;;;;;14.42;32.56;101045.06;5184430;27;20011;-84
2024/04/20 10:28:35;;;;;;;0.77;0.63;;;;;;;13.42;33.41;101054.59;5182803;27;20016;-83
2024/04/20 10:31:11;;;;;;;0.85;0.20;;;;;;;12.62;34.08;101059.94;5182980;27;20038;-83
2024/04/20 10:33:43;;;;;;;0.90;0.50;;;;;;;13.28;34.48;101052.97;5158591;27;20028;-84
2024/04/20 10:36:16;;;;;;;0.55;0.43;;;;;;;13.57;34.12;101054.34;5152917;27;20124;-84
2024/04/20 10:38:45;;;;;;;1.33;0.70;;;;;;;13.60;34.37;101066.59;5178657;27;20023;-83
2024/04/20 10:41:21;;;;;;;2.72;0.47;;;;;;;13.53;35.44;101057.91;5185727;27;20035;-83
2024/04/20 10:43:50;;;;;;;0.90;0.65;;;;;;;13.24;36.45;101060.06;5210547;27;20012;-85
2024/04/20 10:46:24;;;;;;;1.45;0.50;;;;;;;12.77;37.00;101063.28;5188094;27;20004;-84
2024/04/20 10:49:01;;;;;;;1.25;1.00;;;;;;;13.02;37.35;101063.84;5205296;27;20015;-84
2024/04/20 10:51:30;;;;;;;0.88;0.88;;;;;;;14.13;36.08;101062.25;5152803;27;20023;-83
2024/04/20 10:54:02;;;;;;;1.17;0.70;;;;;;;14.43;36.13;101065.25;5201382;27;20007;-84
2024/04/20 10:56:38;;;;;;;0.88;0.88;;;;;;;14.56;35.69;101060.59;5184756;27;20452;-84
2024/04/20 10:59:10;;;;;;;1.17;0.63;;;;;;;13.78;37.16;101065.44;5206516;27;20015;-86
2024/04/20 11:01:42;;;;;;;1.30;1.02;;;;;;;13.56;37.48;101069.28;5182389;27;20016;-85
2024/04/20 11:04:11;;;;;;;0.85;0.85;;;;;;;13.80;36.28;101069.78;5182093;27;20023;-84
2024/04/20 11:06:42;;;;;;;0.60;0.43;;;;;;;14.19;35.28;101064.75;5177518;27;20086;-85
2024/04/20 11:09:16;;;;;;;1.08;0.52;;;;;;;14.01;35.57;101075.59;5189127;27;20008;-82
2024/04/20 11:11:45;;;;;;;0.63;0.63;;;;;;;14.25;35.68;101065.53;5177485;27;20016;-82
2024/04/20 11:14:19;;;;;;;1.23;1.08;;;;;;;14.19;35.08;101059.50;5183985;27;20007;-81
2024/04/20 11:16:49;;;;;;;2.85;0.80;;;;;;;13.88;35.24;101065.28;5154103;27;20023;-85
2024/04/20 11:19:20;;;;;;;2.05;0.55;;;;;;;13.98;35.87;101066.00;5181598;27;20115;-82
2024/04/20 11:21:52;;;;;;;0.90;0.90;;;;;;;14.18;36.03;101064.78;5184092;27;20022;-82
2024/04/20 11:24:21;;;;;;;0.88;0.88;;;;;;;14.45;35.54;101068.69;5156847;27;20023;-86
2024/04/20 11:27:27;;;;;;;1.23;1.13;;;;;;;14.17;36.13;101074.47;5207333;27;20011;-84
2024/04/20 11:29:58;;;;;;;0.77;0.77;;;;;;;14.61;35.55;101078.94;5209214;27;20031;-85
2024/04/20 11:32:26;;;;;;;0.45;0.45;;;;;;;14.62;34.91;101075.44;5208747;27;20460;-84
2024/04/20 11:34:54;;;;;;;1.17;1.00;;;;;;;14.57;34.79;101070.22;5179521;27;20098;-84
2024/04/20 11:37:24;;;;;;;0.65;0.55;;;;;;;14.09;35.20;101080.75;5183577;27;20016;-82